This is the latest recevied weather packets stored in our database for station/object SR8WXL-13. If no packets are shown the sender has not sent any weather packets the latest 10 day(s).
| Time | Temp. | Humidity | Pressure | Rain* | Wind** | Luminosity | Snow |
|---|---|---|---|---|---|---|---|
| 1777449071 | 6.11° C | 60% | 1038 hPa | - | - | - | - |
| 1777448339 | 6.11° C | 58% | 1037.6 hPa | - | - | - | - |
| 1777447549 | 6.11° C | 58% | 1037.5 hPa | - | - | - | - |
| 1777446674 | 6.11° C | 59% | 1037.5 hPa | - | - | - | - |
| 1777445844 | 6.11° C | 57% | 1037.3 hPa | - | - | - | - |
| 1777444989 | 6.11° C | 57% | 1037.2 hPa | - | - | - | - |
| 1777444105 | 5° C | 61% | 1037.1 hPa | - | - | - | - |
| 1777443331 | 5° C | 62% | 1037.3 hPa | - | - | - | - |
| 1777442516 | 3.89° C | 62% | 1037.5 hPa | - | - | - | - |
| 1777441789 | 2.78° C | 63% | 1037.4 hPa | - | - | - | - |
| 1777441049 | 2.78° C | 63% | 1037.3 hPa | - | - | - | - |
| 1777440329 | 1.11° C | 71% | 1037.1 hPa | - | - | - | - |
| 1777439444 | -1.11° C | 78% | 1037.1 hPa | - | - | - | - |
| 1777438680 | -1.11° C | 82% | 1037.2 hPa | - | - | - | - |
| 1777437825 | -2.78° C | 86% | 1037.5 hPa | - | - | - | - |
| 1777437040 | -2.78° C | 89% | 1037.3 hPa | - | - | - | - |
| 1777436155 | -3.89° C | 91% | 1037.1 hPa | - | - | - | - |
| 1777435434 | -5° C | 90% | 1037.3 hPa | - | - | - | - |
| 1777434584 | -5° C | 90% | 1037.1 hPa | - | - | - | - |
| 1777433695 | -5° C | 90% | 1037 hPa | - | - | - | - |
| 1777432885 | -5° C | 90% | 1036.9 hPa | - | - | - | - |
| 1777432155 | -5° C | 90% | 1036.8 hPa | - | - | - | - |
| 1777431314 | -5° C | 89% | 1036.8 hPa | - | - | - | - |
| 1777430455 | -3.89° C | 89% | 1037 hPa | - | - | - | - |
| 1777429659 | -3.89° C | 88% | 1036.8 hPa | - | - | - | - |
* Rain since midnight (hover to see other rain measurements)
** Current wind speed in m/s (hover to see current wind gust speed)